Time,TemperatureF,DewpointF,PressureIn,WindDirection,WindDirectionDegrees,WindSpeedMPH,WindSpeedGustMPH,Humidity,HourlyPrecipIn,Conditions,Clouds,dailyrainin,SoftwareType,DateUTC
2013-01-16 00:01:00,34.7,33.0,30.16,NNW,334,0.0,3.0,94,0.00,,,0.00,weatherlink.com 1.10,2013-01-16 06:01:00,
2013-01-16 00:16:00,34.8,33.0,30.17,NNW,334,0.0,1.0,94,0.00,,,0.00,weatherlink.com 1.10,2013-01-16 06:16:00,
2013-01-16 00:31:00,34.9,33.0,30.17,NNW,330,1.0,3.0,94,0.00,,,0.00,weatherlink.com 1.10,2013-01-16 06:31:00,
2013-01-16 00:46:00,35.1,34.0,30.16,NNW,328,0.0,3.0,95,0.00,,,0.00,weatherlink.com 1.10,2013-01-16 06:46:00,
2013-01-16 01:01:00,35.2,34.0,30.17,NNW,328,0.0,1.0,95,0.00,,,0.00,weatherlink.com 1.10,2013-01-16 07:01:00,
2013-01-16 01:16:00,35.3,34.0,30.18,NNW,328,0.0,2.0,95,0.00,,,0.00,weatherlink.com 1.10,2013-01-16 07:16:00,
2013-01-16 01:32:00,35.3,34.0,30.18,NNW,340,1.0,3.0,95,0.00,,,0.00,weatherlink.com 1.10,2013-01-16 07:32:00,
2013-01-16 01:47:00,35.4,34.0,30.19,NNW,339,2.0,4.0,94,0.00,,,0.00,weatherlink.com 1.10,2013-01-16 07:47:00,
2013-01-16 02:02:00,35.5,34.0,30.18,NNW,346,0.0,4.0,94,0.00,,,0.00,weatherlink.com 1.10,2013-01-16 08:02:00,
2013-01-16 02:17:00,35.4,34.0,30.19,NNW,327,0.0,6.0,94,0.00,,,0.00,weatherlink.com 1.10,2013-01-16 08:17:00,
2013-01-16 02:32:00,35.4,34.0,30.16,NNW,330,3.0,5.0,94,0.00,,,0.00,weatherlink.com 1.10,2013-01-16 08:32:00,
2013-01-16 02:47:00,35.5,34.0,30.16,NNW,336,0.0,4.0,94,0.00,,,0.00,weatherlink.com 1.10,2013-01-16 08:47:00,
2013-01-16 03:02:00,35.3,34.0,30.18,NW,323,0.0,5.0,93,0.00,,,0.00,weatherlink.com 1.10,2013-01-16 09:02:00,
2013-01-16 03:17:00,35.3,34.0,30.20,NW,323,0.0,2.0,93,0.00,,,0.00,weatherlink.com 1.10,2013-01-16 09:17:00,
2013-01-16 03:32:00,35.4,34.0,30.20,NW,323,1.0,4.0,93,0.00,,,0.00,weatherlink.com 1.10,2013-01-16 09:32:00,
2013-01-16 03:47:00,35.5,34.0,30.19,NNW,334,0.0,4.0,93,0.00,,,0.00,weatherlink.com 1.10,2013-01-16 09:47:00,
2013-01-16 04:02:00,35.5,34.0,30.20,NNW,334,0.0,2.0,93,0.00,,,0.00,weatherlink.com 1.10,2013-01-16 10:02:00,
2013-01-16 04:17:00,35.5,34.0,30.21,NNW,335,0.0,4.0,93,0.00,,,0.00,weatherlink.com 1.10,2013-01-16 10:17:00,
2013-01-16 04:32:00,35.6,34.0,30.21,NNW,334,0.0,3.0,93,0.00,,,0.00,weatherlink.com 1.10,2013-01-16 10:32:00,
2013-01-16 04:47:00,35.7,34.0,30.19,NNW,334,1.0,4.0,93,0.00,,,0.00,weatherlink.com 1.10,2013-01-16 10:47:00,
2013-01-16 05:02:00,35.8,34.0,30.19,NNW,331,1.0,2.0,93,0.00,,,0.00,weatherlink.com 1.10,2013-01-16 11:02:00,
2013-01-16 05:17:00,35.7,34.0,30.20,NNW,331,0.0,3.0,93,0.00,,,0.00,weatherlink.com 1.10,2013-01-16 11:17:00,
2013-01-16 05:32:00,35.7,34.0,30.20,NNW,331,3.0,3.0,93,0.00,,,0.00,weatherlink.com 1.10,2013-01-16 11:32:00,
2013-01-16 05:47:00,35.8,34.0,30.21,NNW,331,1.0,3.0,93,0.00,,,0.00,weatherlink.com 1.10,2013-01-16 11:47:00,
2013-01-16 06:02:00,35.8,34.0,30.21,NNW,327,1.0,3.0,92,0.00,,,0.00,weatherlink.com 1.10,2013-01-16 12:02:00,
2013-01-16 06:17:00,35.7,34.0,30.21,NW,321,2.0,3.0,92,0.00,,,0.00,weatherlink.com 1.10,2013-01-16 12:17:00,
2013-01-16 06:32:00,35.8,34.0,30.21,NW,321,0.0,2.0,92,0.00,,,0.00,weatherlink.com 1.10,2013-01-16 12:32:00,
2013-01-16 06:47:00,35.8,34.0,30.21,NW,321,0.0,4.0,92,0.00,,,0.00,weatherlink.com 1.10,2013-01-16 12:47:00,
2013-01-16 07:02:00,35.7,34.0,30.22,NNW,327,4.0,4.0,92,0.00,,,0.00,weatherlink.com 1.10,2013-01-16 13:02:00,
2013-01-16 07:17:00,35.7,34.0,30.23,NW,326,0.0,2.0,92,0.00,,,0.00,weatherlink.com 1.10,2013-01-16 13:17:00,
2013-01-16 07:32:00,35.6,33.0,30.23,NW,326,0.0,2.0,91,0.00,,,0.00,weatherlink.com 1.10,2013-01-16 13:32:00,
2013-01-16 07:47:00,35.5,33.0,30.24,NW,326,1.0,2.0,91,0.00,,,0.00,weatherlink.com 1.10,2013-01-16 13:47:00,
2013-01-16 08:02:00,35.4,33.0,30.24,NW,326,1.0,2.0,92,0.00,,,0.00,weatherlink.com 1.10,2013-01-16 14:02:00,
2013-01-16 08:17:00,35.9,34.0,30.25,NNW,342,0.0,3.0,91,0.00,,,0.00,weatherlink.com 1.10,2013-01-16 14:17:00,
2013-01-16 08:32:00,36.6,34.0,30.25,NNW,342,0.0,2.0,90,0.00,,,0.00,weatherlink.com 1.10,2013-01-16 14:32:00,
2013-01-16 08:47:00,36.7,34.0,30.25,NNW,329,2.0,3.0,88,0.00,,,0.00,weatherlink.com 1.10,2013-01-16 14:47:00,
2013-01-16 09:02:00,37.2,33.0,30.25,WNW,296,2.0,5.0,86,0.00,,,0.00,weatherlink.com 1.10,2013-01-16 15:02:00,
2013-01-16 09:17:00,38.3,33.0,30.26,NW,315,2.0,5.0,82,0.00,,,0.00,weatherlink.com 1.10,2013-01-16 15:17:00,
2013-01-16 09:32:00,38.7,33.0,30.26,SSE,165,3.0,5.0,80,0.00,,,0.00,weatherlink.com 1.10,2013-01-16 15:32:00,
2013-01-16 09:47:00,38.7,32.0,30.27,WNW,300,2.0,5.0,77,0.00,,,0.00,weatherlink.com 1.10,2013-01-16 15:47:00,
2013-01-16 10:02:00,39.2,33.0,30.27,WSW,254,1.0,4.0,78,0.00,,,0.00,weatherlink.com 1.10,2013-01-16 16:02:00,
2013-01-16 10:17:00,40.9,33.0,30.27,NW,325,1.0,3.0,73,0.00,,,0.00,weatherlink.com 1.10,2013-01-16 16:17:00,
2013-01-16 10:32:00,41.1,33.0,30.26,North,355,2.0,5.0,72,0.00,,,0.00,weatherlink.com 1.10,2013-01-16 16:32:00,
2013-01-16 10:47:00,41.5,31.0,30.26,NNW,333,0.0,5.0,67,0.00,,,0.00,weatherlink.com 1.10,2013-01-16 16:47:00,
2013-01-16 11:03:00,42.4,32.0,30.25,NW,322,1.0,3.0,66,0.00,,,0.00,weatherlink.com 1.10,2013-01-16 17:03:00,
2013-01-16 11:18:00,43.3,28.0,30.24,NNW,327,0.0,5.0,56,0.00,,,0.00,weatherlink.com 1.10,2013-01-16 17:18:00,
2013-01-16 11:33:00,44.3,26.0,30.23,NNW,327,4.0,8.0,48,0.00,,,0.00,weatherlink.com 1.10,2013-01-16 17:33:00,
2013-01-16 11:48:00,46.2,27.0,30.23,West,259,5.0,5.0,47,0.00,,,0.00,weatherlink.com 1.10,2013-01-16 17:48:00,
2013-01-16 12:03:00,45.8,24.0,30.22,NNW,338,0.0,7.0,43,0.00,,,0.00,weatherlink.com 1.10,2013-01-16 18:03:00,
2013-01-16 12:18:00,47.7,26.0,30.21,NNW,333,2.0,6.0,43,0.00,,,0.00,weatherlink.com 1.10,2013-01-16 18:18:00,
2013-01-16 12:33:00,46.8,23.0,30.20,NNW,327,3.0,9.0,39,0.00,,,0.00,weatherlink.com 1.10,2013-01-16 18:33:00,
2013-01-16 12:48:00,48.2,24.0,30.20,West,260,1.0,7.0,39,0.00,,,0.00,weatherlink.com 1.10,2013-01-16 18:48:00,
2013-01-16 13:03:00,48.5,24.0,30.19,NW,312,3.0,4.0,39,0.00,,,0.00,weatherlink.com 1.10,2013-01-16 19:03:00,
2013-01-16 13:18:00,48.8,23.0,30.19,WSW,243,2.0,5.0,36,0.00,,,0.00,weatherlink.com 1.10,2013-01-16 19:18:00,
2013-01-16 13:33:00,49.3,24.0,30.18,NNW,333,3.0,5.0,38,0.00,,,0.00,weatherlink.com 1.10,2013-01-16 19:33:00,
2013-01-16 13:48:00,48.0,23.0,30.18,NNW,327,1.0,6.0,37,0.00,,,0.00,weatherlink.com 1.10,2013-01-16 19:48:00,
2013-01-16 14:03:00,49.3,24.0,30.17,NW,304,1.0,4.0,37,0.00,,,0.00,weatherlink.com 1.10,2013-01-16 20:03:00,
2013-01-16 14:18:00,49.0,23.0,30.16,NNW,331,0.0,5.0,36,0.00,,,0.00,weatherlink.com 1.10,2013-01-16 20:18:00,
2013-01-16 14:33:00,49.7,24.0,30.16,West,279,3.0,4.0,37,0.00,,,0.00,weatherlink.com 1.10,2013-01-16 20:33:00,
2013-01-16 14:48:00,49.2,23.0,30.16,SW,217,2.0,6.0,36,0.00,,,0.00,weatherlink.com 1.10,2013-01-16 20:48:00,
2013-01-16 15:03:00,48.8,23.0,30.16,WNW,302,2.0,8.0,37,0.00,,,0.00,weatherlink.com 1.10,2013-01-16 21:03:00,
2013-01-16 15:18:00,48.7,23.0,30.16,NNW,335,3.0,5.0,37,0.00,,,0.00,weatherlink.com 1.10,2013-01-16 21:18:00,
2013-01-16 15:48:00,47.7,24.0,30.16,NNW,339,3.0,5.0,39,0.00,,,0.00,weatherlink.com 1.10,2013-01-16 21:48:00,
2013-01-16 16:03:00,47.2,24.0,30.17,NW,312,1.0,4.0,40,0.00,,,0.00,weatherlink.com 1.10,2013-01-16 22:03:00,
2013-01-16 16:33:00,46.7,26.0,30.17,North,355,1.0,3.0,45,0.00,,,0.00,weatherlink.com 1.10,2013-01-16 22:33:00,
2013-01-16 16:48:00,46.4,25.0,30.18,NW,309,1.0,3.0,43,0.00,,,0.00,weatherlink.com 1.10,2013-01-16 22:48:00,
2013-01-16 17:03:00,46.0,26.0,30.18,West,267,0.0,2.0,46,0.00,,,0.00,weatherlink.com 1.10,2013-01-16 23:03:00,
2013-01-16 17:33:00,44.3,26.0,30.20,West,267,0.0,0.0,49,0.00,,,0.00,weatherlink.com 1.10,2013-01-16 23:33:00,
2013-01-16 17:48:00,43.5,27.0,30.21,West,267,0.0,0.0,53,0.00,,,0.00,weatherlink.com 1.10,2013-01-16 23:48:00,
2013-01-16 18:03:00,42.7,27.0,30.21,West,267,0.0,0.0,54,0.00,,,0.00,weatherlink.com 1.10,2013-01-17 00:03:00,
2013-01-16 18:18:00,42.0,28.0,30.22,West,267,0.0,0.0,57,0.00,,,0.00,weatherlink.com 1.10,2013-01-17 00:18:00,
2013-01-16 18:33:00,41.4,28.0,30.22,West,267,0.0,0.0,59,0.00,,,0.00,weatherlink.com 1.10,2013-01-17 00:33:00,
2013-01-16 18:48:00,40.7,29.0,30.22,West,267,0.0,0.0,64,0.00,,,0.00,weatherlink.com 1.10,2013-01-17 00:48:00,
2013-01-16 19:03:00,40.2,29.0,30.23,West,267,0.0,0.0,65,0.00,,,0.00,weatherlink.com 1.10,2013-01-17 01:03:00,
2013-01-16 19:18:00,39.7,30.0,30.23,West,267,0.0,1.0,68,0.00,,,0.00,weatherlink.com 1.10,2013-01-17 01:18:00,
2013-01-16 19:33:00,39.1,30.0,30.24,West,267,0.0,0.0,69,0.00,,,0.00,weatherlink.com 1.10,2013-01-17 01:33:00,
2013-01-16 19:48:00,38.6,30.0,30.24,West,267,0.0,0.0,70,0.00,,,0.00,weatherlink.com 1.10,2013-01-17 01:48:00,
2013-01-16 20:03:00,38.4,29.0,30.25,West,267,0.0,0.0,69,0.00,,,0.00,weatherlink.com 1.10,2013-01-17 02:03:00,
2013-01-16 20:18:00,38.0,30.0,30.25,West,267,0.0,2.0,73,0.00,,,0.00,weatherlink.com 1.10,2013-01-17 02:18:00,
2013-01-16 20:33:00,37.4,29.0,30.25,West,267,0.0,0.0,73,0.00,,,0.00,weatherlink.com 1.10,2013-01-17 02:33:00,
2013-01-16 20:48:00,37.2,30.0,30.25,West,267,0.0,1.0,74,0.00,,,0.00,weatherlink.com 1.10,2013-01-17 02:48:00,
2013-01-16 21:03:00,36.9,30.0,30.25,West,267,0.0,0.0,75,0.00,,,0.00,weatherlink.com 1.10,2013-01-17 03:03:00,
2013-01-16 21:18:00,36.5,29.0,30.26,West,267,0.0,0.0,74,0.00,,,0.00,weatherlink.com 1.10,2013-01-17 03:18:00,
2013-01-16 21:33:00,36.2,29.0,30.25,West,267,0.0,0.0,74,0.00,,,0.00,weatherlink.com 1.10,2013-01-17 03:33:00,
2013-01-16 21:48:00,35.6,30.0,30.25,West,267,0.0,1.0,81,0.00,,,0.00,weatherlink.com 1.10,2013-01-17 03:48:00,
2013-01-16 22:03:00,34.9,29.0,30.25,West,267,0.0,0.0,80,0.00,,,0.00,weatherlink.com 1.10,2013-01-17 04:03:00,
2013-01-16 22:18:00,34.5,29.0,30.25,West,267,0.0,0.0,80,0.00,,,0.00,weatherlink.com 1.10,2013-01-17 04:18:00,
2013-01-16 22:33:00,33.8,29.0,30.25,West,267,0.0,0.0,81,0.00,,,0.00,weatherlink.com 1.10,2013-01-17 04:33:00,
2013-01-16 22:48:00,33.1,29.0,30.25,West,267,0.0,0.0,84,0.00,,,0.00,weatherlink.com 1.10,2013-01-17 04:48:00,
2013-01-16 23:03:00,32.3,28.0,30.25,West,267,0.0,0.0,85,0.00,,,0.00,weatherlink.com 1.10,2013-01-17 05:03:00,
2013-01-16 23:18:00,32.0,28.0,30.25,West,267,0.0,0.0,85,0.00,,,0.00,weatherlink.com 1.10,2013-01-17 05:18:00,
2013-01-16 23:33:00,31.7,28.0,30.25,West,267,0.0,0.0,85,0.00,,,0.00,weatherlink.com 1.10,2013-01-17 05:33:00,
2013-01-16 23:48:00,31.7,28.0,30.25,West,267,0.0,0.0,85,0.00,,,0.00,weatherlink.com 1.10,2013-01-17 05:48:00,